Cocoa, Florida
Current Conditions -  °F | °C
As of 8:58 PM on Wednesday 17 Dec 2014 (Local Time) from KCOF Reporting Station
Clear Clear  
Wind Chill: 64°   Ceiling: Unl
Heat Index: 64°   Visibility: 10mi
Dew Point: 58°   Wind: 3mph
Humidity: 82%   Direction: 50°NE
Pressure: 30.13"   Gusts: NA
Location:  28.35°N, 80.73°W
Report Text: KCOF 180158Z AUTO 05003KT 10SM CLR 18/14 A3013 RMK AO2 SLP207 T01750144
Loading
Personal Weather Stations






























Interactive Weather Map New forecast layout! Learn more

10-Day Weather Forecast

Advertisements
Track Severe Weather on mobile